METAR AND TAF INFORMATION
METAR FOR EHLW
ADDS - METARS form results

(1448 UTC 13 July 2020)
Data provider http://aviationweather.gov/metar/data/
 
METAR text: EHLW 131425Z AUTO 26007KT 210V300 9999 SCT043 BKN340 21/11 Q1021 BLU
Conditions at: EHLW (LEEUWARDEN RNLAF, NL) observed 1425 UTC 13 July 2020
Temperature: 21.0°C (70°F)
Dewpoint: 11.0°C (52°F) [RH = 53%]
Pressure (altimeter): 30.15 inches Hg (1021.0 mb)
Winds: from the W (260 degrees) at 8 MPH (7 knots; 3.6 m/s)
Visibility: 6 or more miles (10+ km)
Ceiling: 34000 feet AGL
Clouds: scattered clouds at 4300 feet AGL
broken clouds at 34000 feet AGL
Weather: no significant weather observed at this time

METAR text: EHLW 131404Z AUTO 24007KT 180V270 9999 OVC300 21/11 Q1021 BLU
Conditions at: EHLW (LEEUWARDEN RNLAF, NL) observed 1404 UTC 13 July 2020
Temperature: 21.0°C (70°F)
Dewpoint: 11.0°C (52°F) [RH = 53%]
Pressure (altimeter): 30.15 inches Hg (1021.0 mb)
Winds: from the WSW (240 degrees) at 8 MPH (7 knots; 3.6 m/s)
Visibility: 6 or more miles (10+ km)
Ceiling: 30000 feet AGL
Clouds: overcast cloud deck at 30000 feet AGL
Weather: no significant weather observed at this time

METAR text: EHLW 131355Z AUTO 22007KT 160V250 9999 FEW044 SCT240 OVC310 21/11 Q1021 BLU NOSIG
Conditions at: EHLW (LEEUWARDEN RNLAF, NL) observed 1355 UTC 13 July 2020
Temperature: 21.0°C (70°F)
Dewpoint: 11.0°C (52°F) [RH = 53%]
Pressure (altimeter): 30.15 inches Hg (1021.0 mb)
Winds: from the SW (220 degrees) at 8 MPH (7 knots; 3.6 m/s)
Visibility: 6 or more miles (10+ km)
Ceiling: 31000 feet AGL
Clouds: few clouds at 4400 feet AGL
scattered clouds at 24000 feet AGL
overcast cloud deck at 31000 feet AGL
Weather: no significant weather observed at this time

Forecast for: EHLW (LEEUWARDEN RNLAF, NL)
Text: TAF EHLW 131234Z 1313/1401 25007KT CAVOK
Forecast period: 1300 to 1700 UTC 13 July 2020
Forecast type: FROM: standard forecast or significant change
Winds: from the WSW (250 degrees) at 8 MPH (7 knots; 3.6 m/s)
Visibility: 6 or more miles 10+ km)
Ceiling: unknown
Clouds: missing
Weather: NSW  (no significant weather)
Text: BECMG 1317/1320 19004KT
Forecast period: 1700 UTC 13 July 2020 to 0100 UTC 14 July 2020
Forecast type: BECOMING: Conditions expected to become as follows by 2000 UTC 13 July 2020
Winds: from the S (190 degrees) at 5 MPH (4 knots; 2.1 m/s)
Visibility: 6 or more miles 10+ km)
Ceiling: unknown
Clouds: missing
Weather: NSW  (no significant weather)

 AIRPORT MAP

 RUNWAY INFORMATION
Runway 06 Runway length 9701 ft Runway width 164 ft
Runway elevation 4 ft Runway displaced threshold 847 ft Runway heading 55
Runway 24 Runway length 9701 ft Runway width 164 ft
Runway elevation 4 ft Runway displaced threshold 1053 ft Runway heading 235
Runway 09 Runway length 6559 ft Runway width 164 ft
Runway elevation 3 ft Runway displaced threshold 195 ft Runway heading 91
Runway 27 Runway length 6559 ft Runway width 164 ft
Runway elevation 4 ft Runway displaced threshold 0 ft Runway heading 271

 AIRPORT FREQUENCIES
Type APP Name RAPCON NOR Frequency 122.1 MHZ
Type DIR Name ARRIVAL Frequency 122.1 MHZ
Type GND Name GND Frequency 28.155 MHZ
Type TWR Name TWR Frequency 120.7 MHZ

 AIRPORT NEAR NAVIGATION AIDS
Type TACAN Name Leeuwarden Frequency 114700 KHZ